sensor_id;sensor_type;location;lat;lon;timestamp;P1;durP1;ratioP1;P2;durP2;ratioP2
51228;SDS011;37304;52.216;6.874;2022-12-07T00:00:18;6.73;;;2.90;;
51228;SDS011;37304;52.216;6.874;2022-12-07T00:05:21;4.93;;;2.22;;
51228;SDS011;37304;52.216;6.874;2022-12-07T00:10:21;4.57;;;3.20;;
51228;SDS011;37304;52.216;6.874;2022-12-07T00:15:22;5.00;;;2.97;;
51228;SDS011;37304;52.216;6.874;2022-12-07T00:20:22;6.20;;;3.27;;
51228;SDS011;37304;52.216;6.874;2022-12-07T00:25:22;7.70;;;2.80;;
51228;SDS011;37304;52.216;6.874;2022-12-07T00:30:23;4.30;;;2.60;;
51228;SDS011;37304;52.216;6.874;2022-12-07T00:35:23;6.30;;;3.28;;
51228;SDS011;37304;52.216;6.874;2022-12-07T00:40:24;5.83;;;2.77;;
51228;SDS011;37304;52.216;6.874;2022-12-07T00:45:24;5.53;;;2.50;;
51228;SDS011;37304;52.216;6.874;2022-12-07T00:50:30;7.55;;;2.20;;
51228;SDS011;37304;52.216;6.874;2022-12-07T00:55:34;5.47;;;3.00;;
51228;SDS011;37304;52.216;6.874;2022-12-07T01:00:35;5.45;;;2.83;;
51228;SDS011;37304;52.216;6.874;2022-12-07T01:05:37;3.67;;;2.67;;
51228;SDS011;37304;52.216;6.874;2022-12-07T01:10:37;8.47;;;2.27;;
51228;SDS011;37304;52.216;6.874;2022-12-07T01:15:44;3.37;;;3.07;;
51228;SDS011;37304;52.216;6.874;2022-12-07T01:20:44;8.07;;;2.25;;
51228;SDS011;37304;52.216;6.874;2022-12-07T01:25:45;2.43;;;1.80;;
51228;SDS011;37304;52.216;6.874;2022-12-07T01:30:53;5.63;;;2.20;;
51228;SDS011;37304;52.216;6.874;2022-12-07T01:36:00;3.20;;;2.05;;
51228;SDS011;37304;52.216;6.874;2022-12-07T01:41:05;2.85;;;1.70;;
51228;SDS011;37304;52.216;6.874;2022-12-07T01:46:05;3.60;;;2.00;;
51228;SDS011;37304;52.216;6.874;2022-12-07T01:51:08;4.53;;;2.03;;
51228;SDS011;37304;52.216;6.874;2022-12-07T01:56:12;5.65;;;1.85;;
51228;SDS011;37304;52.216;6.874;2022-12-07T02:01:19;3.83;;;1.70;;
51228;SDS011;37304;52.216;6.874;2022-12-07T02:06:22;4.43;;;2.95;;
51228;SDS011;37304;52.216;6.874;2022-12-07T02:11:24;4.65;;;1.77;;
51228;SDS011;37304;52.216;6.874;2022-12-07T02:16:27;6.37;;;1.90;;
51228;SDS011;37304;52.216;6.874;2022-12-07T02:21:51;4.38;;;2.10;;
51228;SDS011;37304;52.216;6.874;2022-12-07T02:27:07;6.43;;;1.70;;
51228;SDS011;37304;52.216;6.874;2022-12-07T02:32:25;4.28;;;1.42;;
51228;SDS011;37304;52.216;6.874;2022-12-07T02:37:48;2.75;;;1.27;;
51228;SDS011;37304;52.216;6.874;2022-12-07T02:43:04;4.32;;;1.65;;
51228;SDS011;37304;52.216;6.874;2022-12-07T02:48:16;2.17;;;1.63;;
51228;SDS011;37304;52.216;6.874;2022-12-07T02:53:29;3.60;;;1.30;;
51228;SDS011;37304;52.216;6.874;2022-12-07T03:03:37;4.95;;;1.23;;
51228;SDS011;37304;52.216;6.874;2022-12-07T03:09:00;8.07;;;1.55;;
51228;SDS011;37304;52.216;6.874;2022-12-07T03:24:57;4.07;;;1.40;;
51228;SDS011;37304;52.216;6.874;2022-12-07T03:30:02;4.53;;;1.35;;
51228;SDS011;37304;52.216;6.874;2022-12-07T03:35:20;1.00;;;0.90;;
51228;SDS011;37304;52.216;6.874;2022-12-07T03:40:36;2.38;;;1.10;;
51228;SDS011;37304;52.216;6.874;2022-12-07T03:46:16;4.03;;;1.20;;
51228;SDS011;37304;52.216;6.874;2022-12-07T03:57:03;2.72;;;0.90;;
51228;SDS011;37304;52.216;6.874;2022-12-07T04:02:06;3.40;;;0.77;;
51228;SDS011;37304;52.216;6.874;2022-12-07T04:07:07;3.83;;;1.15;;
51228;SDS011;37304;52.216;6.874;2022-12-07T04:12:08;7.47;;;1.23;;
51228;SDS011;37304;52.216;6.874;2022-12-07T04:17:10;4.38;;;0.82;;
51228;SDS011;37304;52.216;6.874;2022-12-07T04:22:10;7.67;;;0.80;;
51228;SDS011;37304;52.216;6.874;2022-12-07T04:27:11;3.75;;;1.10;;
51228;SDS011;37304;52.216;6.874;2022-12-07T04:32:12;7.35;;;0.90;;
51228;SDS011;37304;52.216;6.874;2022-12-07T04:37:12;3.80;;;0.93;;
51228;SDS011;37304;52.216;6.874;2022-12-07T04:42:12;2.53;;;1.00;;
51228;SDS011;37304;52.216;6.874;2022-12-07T04:47:13;3.00;;;1.23;;
51228;SDS011;37304;52.216;6.874;2022-12-07T04:52:13;6.00;;;1.30;;
51228;SDS011;37304;52.216;6.874;2022-12-07T04:57:14;4.93;;;1.17;;
51228;SDS011;37304;52.216;6.874;2022-12-07T05:02:14;1.23;;;0.85;;
51228;SDS011;37304;52.216;6.874;2022-12-07T05:07:14;4.40;;;1.30;;
51228;SDS011;37304;52.216;6.874;2022-12-07T05:12:15;3.17;;;0.90;;
51228;SDS011;37304;52.216;6.874;2022-12-07T05:17:15;6.93;;;1.93;;
51228;SDS011;37304;52.216;6.874;2022-12-07T05:22:16;7.88;;;1.27;;
51228;SDS011;37304;52.216;6.874;2022-12-07T05:27:17;0.80;;;0.60;;
51228;SDS011;37304;52.216;6.874;2022-12-07T05:32:17;4.30;;;0.40;;
51228;SDS011;37304;52.216;6.874;2022-12-07T05:37:18;1.83;;;0.77;;
51228;SDS011;37304;52.216;6.874;2022-12-07T05:42:18;2.30;;;0.87;;
51228;SDS011;37304;52.216;6.874;2022-12-07T05:47:19;7.50;;;0.93;;
51228;SDS011;37304;52.216;6.874;2022-12-07T05:52:19;0.47;;;0.47;;
51228;SDS011;37304;52.216;6.874;2022-12-07T05:57:19;4.63;;;0.80;;
51228;SDS011;37304;52.216;6.874;2022-12-07T06:02:20;2.60;;;0.50;;
51228;SDS011;37304;52.216;6.874;2022-12-07T06:07:20;6.00;;;1.10;;
51228;SDS011;37304;52.216;6.874;2022-12-07T06:12:21;1.60;;;0.63;;
51228;SDS011;37304;52.216;6.874;2022-12-07T06:17:38;3.13;;;0.93;;
51228;SDS011;37304;52.216;6.874;2022-12-07T06:22:40;1.73;;;0.80;;
51228;SDS011;37304;52.216;6.874;2022-12-07T06:27:40;5.97;;;1.15;;
51228;SDS011;37304;52.216;6.874;2022-12-07T06:32:40;4.80;;;1.77;;
51228;SDS011;37304;52.216;6.874;2022-12-07T06:37:41;4.83;;;1.20;;
51228;SDS011;37304;52.216;6.874;2022-12-07T06:42:41;1.77;;;0.93;;
51228;SDS011;37304;52.216;6.874;2022-12-07T06:47:41;5.57;;;1.23;;
51228;SDS011;37304;52.216;6.874;2022-12-07T06:52:42;2.60;;;0.90;;
51228;SDS011;37304;52.216;6.874;2022-12-07T06:57:42;1.47;;;0.83;;
51228;SDS011;37304;52.216;6.874;2022-12-07T07:02:42;5.30;;;1.20;;
51228;SDS011;37304;52.216;6.874;2022-12-07T07:07:43;8.13;;;1.17;;
51228;SDS011;37304;52.216;6.874;2022-12-07T07:12:44;5.05;;;0.95;;
51228;SDS011;37304;52.216;6.874;2022-12-07T07:17:45;6.40;;;1.00;;
51228;SDS011;37304;52.216;6.874;2022-12-07T07:22:45;4.30;;;1.53;;
51228;SDS011;37304;52.216;6.874;2022-12-07T07:27:46;4.20;;;1.98;;
51228;SDS011;37304;52.216;6.874;2022-12-07T07:32:46;4.63;;;1.80;;
51228;SDS011;37304;52.216;6.874;2022-12-07T07:37:46;7.13;;;1.83;;
51228;SDS011;37304;52.216;6.874;2022-12-07T07:42:51;5.67;;;1.80;;
51228;SDS011;37304;52.216;6.874;2022-12-07T07:47:52;10.25;;;2.08;;
51228;SDS011;37304;52.216;6.874;2022-12-07T07:52:53;4.13;;;1.20;;
51228;SDS011;37304;52.216;6.874;2022-12-07T07:57:56;3.33;;;1.07;;
51228;SDS011;37304;52.216;6.874;2022-12-07T08:02:56;7.30;;;2.08;;
51228;SDS011;37304;52.216;6.874;2022-12-07T08:07:57;7.60;;;1.53;;
51228;SDS011;37304;52.216;6.874;2022-12-07T08:12:58;5.43;;;2.42;;
51228;SDS011;37304;52.216;6.874;2022-12-07T08:18:10;3.53;;;1.33;;
51228;SDS011;37304;52.216;6.874;2022-12-07T08:23:12;4.47;;;1.85;;
51228;SDS011;37304;52.216;6.874;2022-12-07T08:28:12;6.20;;;1.33;;
51228;SDS011;37304;52.216;6.874;2022-12-07T08:33:13;5.77;;;1.23;;
51228;SDS011;37304;52.216;6.874;2022-12-07T08:38:13;5.03;;;1.37;;
51228;SDS011;37304;52.216;6.874;2022-12-07T08:43:14;8.60;;;1.67;;
51228;SDS011;37304;52.216;6.874;2022-12-07T08:48:14;4.13;;;1.02;;
51228;SDS011;37304;52.216;6.874;2022-12-07T08:53:17;3.58;;;2.20;;
51228;SDS011;37304;52.216;6.874;2022-12-07T08:58:18;2.08;;;1.85;;
51228;SDS011;37304;52.216;6.874;2022-12-07T09:03:18;6.73;;;2.03;;
51228;SDS011;37304;52.216;6.874;2022-12-07T09:08:19;4.57;;;1.87;;
51228;SDS011;37304;52.216;6.874;2022-12-07T09:13:20;3.35;;;1.25;;
51228;SDS011;37304;52.216;6.874;2022-12-07T09:18:21;2.50;;;0.93;;
51228;SDS011;37304;52.216;6.874;2022-12-07T09:23:24;4.80;;;1.53;;
51228;SDS011;37304;52.216;6.874;2022-12-07T09:28:29;3.10;;;1.23;;
51228;SDS011;37304;52.216;6.874;2022-12-07T09:33:37;3.70;;;1.20;;
51228;SDS011;37304;52.216;6.874;2022-12-07T09:38:38;2.40;;;1.00;;
51228;SDS011;37304;52.216;6.874;2022-12-07T09:43:39;4.90;;;1.67;;
51228;SDS011;37304;52.216;6.874;2022-12-07T09:48:40;3.90;;;1.13;;
51228;SDS011;37304;52.216;6.874;2022-12-07T09:53:42;3.85;;;1.48;;
51228;SDS011;37304;52.216;6.874;2022-12-07T09:58:44;3.10;;;1.08;;
51228;SDS011;37304;52.216;6.874;2022-12-07T10:08:54;3.05;;;1.10;;
51228;SDS011;37304;52.216;6.874;2022-12-07T10:13:54;6.33;;;0.90;;
51228;SDS011;37304;52.216;6.874;2022-12-07T10:18:54;4.03;;;1.60;;
51228;SDS011;37304;52.216;6.874;2022-12-07T10:24:05;5.27;;;1.57;;
51228;SDS011;37304;52.216;6.874;2022-12-07T10:29:30;3.83;;;1.42;;
51228;SDS011;37304;52.216;6.874;2022-12-07T10:34:37;4.03;;;1.23;;
51228;SDS011;37304;52.216;6.874;2022-12-07T10:44:41;2.45;;;1.00;;
51228;SDS011;37304;52.216;6.874;2022-12-07T11:11:38;3.45;;;0.75;;
51228;SDS011;37304;52.216;6.874;2022-12-07T11:16:59;4.30;;;0.80;;
51228;SDS011;37304;52.216;6.874;2022-12-07T11:22:50;2.35;;;1.33;;
51228;SDS011;37304;52.216;6.874;2022-12-07T11:43:56;4.07;;;1.10;;
51228;SDS011;37304;52.216;6.874;2022-12-07T11:49:03;4.63;;;1.08;;
51228;SDS011;37304;52.216;6.874;2022-12-07T11:54:14;5.40;;;1.08;;
51228;SDS011;37304;52.216;6.874;2022-12-07T11:59:22;7.60;;;0.88;;
51228;SDS011;37304;52.216;6.874;2022-12-07T12:04:30;2.67;;;0.80;;
51228;SDS011;37304;52.216;6.874;2022-12-07T12:09:49;6.20;;;1.02;;
51228;SDS011;37304;52.216;6.874;2022-12-07T12:15:18;2.65;;;0.90;;
51228;SDS011;37304;52.216;6.874;2022-12-07T12:20:28;2.90;;;0.43;;
51228;SDS011;37304;52.216;6.874;2022-12-07T12:25:42;2.53;;;0.90;;
51228;SDS011;37304;52.216;6.874;2022-12-07T12:30:47;4.05;;;0.80;;
51228;SDS011;37304;52.216;6.874;2022-12-07T12:46:55;1.65;;;0.35;;
51228;SDS011;37304;52.216;6.874;2022-12-07T12:51:58;3.70;;;0.88;;
51228;SDS011;37304;52.216;6.874;2022-12-07T13:02:30;5.53;;;1.05;;
51228;SDS011;37304;52.216;6.874;2022-12-07T13:18:00;4.47;;;0.65;;
51228;SDS011;37304;52.216;6.874;2022-12-07T13:23:03;5.90;;;0.68;;
51228;SDS011;37304;52.216;6.874;2022-12-07T13:28:10;5.43;;;1.10;;
51228;SDS011;37304;52.216;6.874;2022-12-07T13:33:16;8.50;;;0.82;;
51228;SDS011;37304;52.216;6.874;2022-12-07T13:38:23;3.55;;;1.17;;
51228;SDS011;37304;52.216;6.874;2022-12-07T13:43:28;7.95;;;0.98;;
51228;SDS011;37304;52.216;6.874;2022-12-07T13:48:32;7.00;;;1.37;;
51228;SDS011;37304;52.216;6.874;2022-12-07T13:53:38;6.35;;;1.48;;
51228;SDS011;37304;52.216;6.874;2022-12-07T13:58:47;2.92;;;1.30;;
51228;SDS011;37304;52.216;6.874;2022-12-07T14:03:47;5.40;;;1.40;;
51228;SDS011;37304;52.216;6.874;2022-12-07T14:08:48;2.60;;;1.10;;
51228;SDS011;37304;52.216;6.874;2022-12-07T14:13:58;5.57;;;1.43;;
51228;SDS011;37304;52.216;6.874;2022-12-07T14:19:03;5.50;;;1.35;;
51228;SDS011;37304;52.216;6.874;2022-12-07T14:24:09;9.50;;;1.75;;
51228;SDS011;37304;52.216;6.874;2022-12-07T14:29:32;5.25;;;2.05;;
51228;SDS011;37304;52.216;6.874;2022-12-07T14:34:32;2.90;;;1.67;;
51228;SDS011;37304;52.216;6.874;2022-12-07T14:39:33;3.57;;;1.67;;
51228;SDS011;37304;52.216;6.874;2022-12-07T14:44:34;5.32;;;2.03;;
51228;SDS011;37304;52.216;6.874;2022-12-07T14:49:37;4.82;;;1.73;;
51228;SDS011;37304;52.216;6.874;2022-12-07T14:54:38;5.35;;;1.10;;
51228;SDS011;37304;52.216;6.874;2022-12-07T14:59:38;8.37;;;0.73;;
51228;SDS011;37304;52.216;6.874;2022-12-07T15:04:39;7.22;;;2.65;;
51228;SDS011;37304;52.216;6.874;2022-12-07T15:09:39;9.02;;;1.50;;
51228;SDS011;37304;52.216;6.874;2022-12-07T15:14:40;5.53;;;1.80;;
51228;SDS011;37304;52.216;6.874;2022-12-07T15:19:40;5.40;;;1.50;;
51228;SDS011;37304;52.216;6.874;2022-12-07T15:24:41;3.00;;;1.20;;
51228;SDS011;37304;52.216;6.874;2022-12-07T15:29:41;4.97;;;1.27;;
51228;SDS011;37304;52.216;6.874;2022-12-07T15:34:41;8.20;;;2.10;;
51228;SDS011;37304;52.216;6.874;2022-12-07T15:39:42;5.33;;;1.97;;
51228;SDS011;37304;52.216;6.874;2022-12-07T15:44:42;6.17;;;1.37;;
51228;SDS011;37304;52.216;6.874;2022-12-07T15:50:05;6.85;;;1.58;;
51228;SDS011;37304;52.216;6.874;2022-12-07T15:55:11;10.13;;;2.38;;
51228;SDS011;37304;52.216;6.874;2022-12-07T16:00:11;6.05;;;1.85;;
51228;SDS011;37304;52.216;6.874;2022-12-07T16:05:15;5.43;;;1.75;;
51228;SDS011;37304;52.216;6.874;2022-12-07T16:10:15;6.57;;;2.77;;
51228;SDS011;37304;52.216;6.874;2022-12-07T16:15:16;8.90;;;2.90;;
51228;SDS011;37304;52.216;6.874;2022-12-07T16:20:19;4.73;;;2.40;;
51228;SDS011;37304;52.216;6.874;2022-12-07T16:25:19;7.65;;;2.97;;
51228;SDS011;37304;52.216;6.874;2022-12-07T16:30:20;4.57;;;2.23;;
51228;SDS011;37304;52.216;6.874;2022-12-07T16:35:23;8.20;;;2.47;;
51228;SDS011;37304;52.216;6.874;2022-12-07T16:40:23;6.97;;;2.60;;
51228;SDS011;37304;52.216;6.874;2022-12-07T16:45:24;6.13;;;2.30;;
51228;SDS011;37304;52.216;6.874;2022-12-07T16:50:24;7.80;;;2.60;;
51228;SDS011;37304;52.216;6.874;2022-12-07T16:55:24;8.27;;;3.33;;
51228;SDS011;37304;52.216;6.874;2022-12-07T17:00:25;8.03;;;2.90;;
51228;SDS011;37304;52.216;6.874;2022-12-07T17:05:25;6.93;;;3.00;;
51228;SDS011;37304;52.216;6.874;2022-12-07T17:10:28;8.88;;;3.58;;
51228;SDS011;37304;52.216;6.874;2022-12-07T17:15:28;10.20;;;2.92;;
51228;SDS011;37304;52.216;6.874;2022-12-07T17:20:29;7.13;;;2.47;;
51228;SDS011;37304;52.216;6.874;2022-12-07T17:25:29;2.43;;;1.87;;
51228;SDS011;37304;52.216;6.874;2022-12-07T17:30:30;10.97;;;2.93;;
51228;SDS011;37304;52.216;6.874;2022-12-07T17:35:33;4.68;;;2.65;;
51228;SDS011;37304;52.216;6.874;2022-12-07T17:40:33;3.40;;;2.07;;
51228;SDS011;37304;52.216;6.874;2022-12-07T17:45:35;6.53;;;2.47;;
51228;SDS011;37304;52.216;6.874;2022-12-07T17:50:38;6.80;;;2.22;;
51228;SDS011;37304;52.216;6.874;2022-12-07T17:56:02;2.72;;;1.63;;
51228;SDS011;37304;52.216;6.874;2022-12-07T18:01:02;3.33;;;2.30;;
51228;SDS011;37304;52.216;6.874;2022-12-07T18:06:08;3.83;;;2.03;;
51228;SDS011;37304;52.216;6.874;2022-12-07T18:11:08;3.47;;;1.93;;
51228;SDS011;37304;52.216;6.874;2022-12-07T18:16:10;5.20;;;2.07;;
51228;SDS011;37304;52.216;6.874;2022-12-07T18:26:18;5.22;;;2.20;;
51228;SDS011;37304;52.216;6.874;2022-12-07T18:31:20;8.70;;;2.47;;
51228;SDS011;37304;52.216;6.874;2022-12-07T18:36:21;6.10;;;1.83;;
51228;SDS011;37304;52.216;6.874;2022-12-07T18:41:22;5.50;;;1.67;;
51228;SDS011;37304;52.216;6.874;2022-12-07T18:46:22;5.90;;;2.10;;
51228;SDS011;37304;52.216;6.874;2022-12-07T18:51:23;2.60;;;2.03;;
51228;SDS011;37304;52.216;6.874;2022-12-07T18:56:24;3.67;;;2.30;;
51228;SDS011;37304;52.216;6.874;2022-12-07T19:01:25;4.30;;;2.42;;
51228;SDS011;37304;52.216;6.874;2022-12-07T19:06:26;5.40;;;2.85;;
51228;SDS011;37304;52.216;6.874;2022-12-07T19:11:28;6.35;;;2.55;;
51228;SDS011;37304;52.216;6.874;2022-12-07T19:16:49;3.97;;;2.63;;
51228;SDS011;37304;52.216;6.874;2022-12-07T19:21:51;4.50;;;2.22;;
51228;SDS011;37304;52.216;6.874;2022-12-07T19:26:51;6.60;;;2.30;;
51228;SDS011;37304;52.216;6.874;2022-12-07T19:31:52;4.85;;;2.08;;
51228;SDS011;37304;52.216;6.874;2022-12-07T19:36:53;6.05;;;3.33;;
51228;SDS011;37304;52.216;6.874;2022-12-07T19:41:54;6.30;;;2.87;;
51228;SDS011;37304;52.216;6.874;2022-12-07T19:46:55;5.63;;;2.50;;
51228;SDS011;37304;52.216;6.874;2022-12-07T19:51:59;8.63;;;2.90;;
51228;SDS011;37304;52.216;6.874;2022-12-07T19:57:03;4.72;;;2.83;;
51228;SDS011;37304;52.216;6.874;2022-12-07T20:02:04;5.80;;;3.60;;
51228;SDS011;37304;52.216;6.874;2022-12-07T20:07:06;8.02;;;3.78;;
51228;SDS011;37304;52.216;6.874;2022-12-07T20:12:07;12.82;;;4.85;;
51228;SDS011;37304;52.216;6.874;2022-12-07T20:17:27;6.38;;;3.40;;
51228;SDS011;37304;52.216;6.874;2022-12-07T20:22:27;5.93;;;3.30;;
51228;SDS011;37304;52.216;6.874;2022-12-07T20:27:28;5.55;;;3.47;;
51228;SDS011;37304;52.216;6.874;2022-12-07T20:32:28;6.90;;;4.20;;
51228;SDS011;37304;52.216;6.874;2022-12-07T20:37:28;10.37;;;4.60;;
51228;SDS011;37304;52.216;6.874;2022-12-07T20:42:29;7.23;;;3.43;;
51228;SDS011;37304;52.216;6.874;2022-12-07T20:47:35;4.93;;;3.78;;
51228;SDS011;37304;52.216;6.874;2022-12-07T20:52:36;7.67;;;3.90;;
51228;SDS011;37304;52.216;6.874;2022-12-07T20:57:36;6.17;;;4.27;;
51228;SDS011;37304;52.216;6.874;2022-12-07T21:02:37;5.87;;;3.80;;
51228;SDS011;37304;52.216;6.874;2022-12-07T21:07:38;8.38;;;4.15;;
51228;SDS011;37304;52.216;6.874;2022-12-07T21:12:39;7.43;;;4.50;;
51228;SDS011;37304;52.216;6.874;2022-12-07T21:17:39;10.15;;;3.97;;
51228;SDS011;37304;52.216;6.874;2022-12-07T21:22:39;6.63;;;4.10;;
51228;SDS011;37304;52.216;6.874;2022-12-07T21:27:40;9.93;;;4.13;;
51228;SDS011;37304;52.216;6.874;2022-12-07T21:32:40;8.77;;;4.57;;
51228;SDS011;37304;52.216;6.874;2022-12-07T21:37:41;7.40;;;4.10;;
51228;SDS011;37304;52.216;6.874;2022-12-07T21:42:41;5.60;;;3.67;;
51228;SDS011;37304;52.216;6.874;2022-12-07T21:47:43;5.63;;;3.80;;
51228;SDS011;37304;52.216;6.874;2022-12-07T21:52:44;5.10;;;3.73;;
51228;SDS011;37304;52.216;6.874;2022-12-07T21:57:44;5.63;;;3.03;;
51228;SDS011;37304;52.216;6.874;2022-12-07T22:02:44;10.13;;;2.50;;
51228;SDS011;37304;52.216;6.874;2022-12-07T22:07:44;5.40;;;3.13;;
51228;SDS011;37304;52.216;6.874;2022-12-07T22:12:45;10.77;;;2.57;;
51228;SDS011;37304;52.216;6.874;2022-12-07T22:17:45;5.20;;;2.57;;
51228;SDS011;37304;52.216;6.874;2022-12-07T22:22:45;6.20;;;2.27;;
51228;SDS011;37304;52.216;6.874;2022-12-07T22:27:46;4.40;;;1.95;;
51228;SDS011;37304;52.216;6.874;2022-12-07T22:32:46;3.93;;;1.90;;
51228;SDS011;37304;52.216;6.874;2022-12-07T22:37:47;7.23;;;2.37;;
51228;SDS011;37304;52.216;6.874;2022-12-07T22:42:47;4.77;;;2.33;;
51228;SDS011;37304;52.216;6.874;2022-12-07T22:47:47;3.38;;;1.92;;
51228;SDS011;37304;52.216;6.874;2022-12-07T22:52:48;7.47;;;2.43;;
51228;SDS011;37304;52.216;6.874;2022-12-07T22:57:48;6.53;;;2.73;;
51228;SDS011;37304;52.216;6.874;2022-12-07T23:02:49;7.22;;;2.35;;
51228;SDS011;37304;52.216;6.874;2022-12-07T23:07:49;5.93;;;3.53;;
51228;SDS011;37304;52.216;6.874;2022-12-07T23:12:50;7.20;;;2.75;;
51228;SDS011;37304;52.216;6.874;2022-12-07T23:18:09;11.40;;;2.90;;
51228;SDS011;37304;52.216;6.874;2022-12-07T23:23:09;6.17;;;3.30;;
51228;SDS011;37304;52.216;6.874;2022-12-07T23:28:09;8.50;;;2.73;;
51228;SDS011;37304;52.216;6.874;2022-12-07T23:33:10;11.30;;;4.57;;
51228;SDS011;37304;52.216;6.874;2022-12-07T23:38:10;6.53;;;3.70;;
51228;SDS011;37304;52.216;6.874;2022-12-07T23:43:10;8.27;;;5.20;;
51228;SDS011;37304;52.216;6.874;2022-12-07T23:48:11;10.83;;;5.00;;
51228;SDS011;37304;52.216;6.874;2022-12-07T23:53:11;11.77;;;6.07;;
51228;SDS011;37304;52.216;6.874;2022-12-07T23:58:11;10.43;;;6.10;;
